Accueil
METAR-TAF:

METAR-TAF

Aéroports :

Aéroport de Lugano

Lugano, Suisse

latitude: 46-00N, longitude: 008-58E, altitude: 273 m

Observation

Le bulletin a été fait il y a 20 minutes, à 10:50 UTC
Vent 5 kt de sud/sud-ouest, variant entre sud-est et ouest/sud-ouest
Température 28°C
Humidité 58%
Pression 1013 hPa
Visibilité 10 km ou plus
Nuages épars à une hauteur de 5000 ft, Cumulus congestus.

METAR: LSZA 301050Z 20005KT 140V240 9999 SCT050TCU 28/19 Q1013 NOSIG

Heure: 13:10 (11:10 UTC)

Prévision

Le bulletin a été fait il y a 2 heures et 45 minutes, à 08:25 UTC
Prévision valable du 30 à 09 UTC au 30 à 18 UTC
Vent 5 kt de sud
Visibilité 10 km ou plus
Quelques nuages à une hauteur de 5000 ft
Temporairement
du 30 à 16 UTC au 30 à 18 UTC
Quelques nuages à une hauteur de 5000 ft, Cumulus congestus.

TAF: LSZA 300825Z 3009/3018 19005KT 9999 FEW050 TEMPO 3016/3018 FEW050TCU

Observations et prévisions météorologiques de plus de 4000 aéroports (messages METAR et TAF).

Les stations disponibles sont représentées par des disques jaunes et rouges sur la carte.

Passer la souris dessus pour voir le nom de la station.

Cliquer dessus pour voir les observations et prévisions météorologiques.

Pour changer de carte: cliquez sur les boutons verts avec une croix noire pour zoomer, sur le bouton vert avec un tiret pour effectuer un zoom arrière, ou sur les flèches vertes pour les cartes adjacentes.


METAR-TAF: